Alto Garcas, Brazil
Current Conditions -  °F | °C
As of 8:00 AM on Sunday 23 Nov 2014 (Local Time) from SBCY Reporting Station
Overcast Overcast  
Wind Chill: 75°   Ceiling: 1100
Heat Index: 75°   Visibility: 6mi
Dew Point: 72°   Wind: 6mph
Humidity: 89%   Direction: 190°S
Pressure: 29.91"   Gusts: NA
Location:  16.94°S, 53.53°W
Report Text: SBCY 231100Z 19005KT 9999 SCT005 BKN011 OVC070 24/22 Q1013
Loading
Personal Weather Stations






























Interactive Weather Map New forecast layout! Learn more

10-Day Weather Forecast

Advertisements
Track Severe Weather on mobile